AAL6811 MMUN-KFLL
Flight info
| Callsign | AAL6811 |
|---|---|
| Flight time | N/A |
| Altitude | 37000 |
| Route | CUN3A CUN DCT CANOA BHHIA3 |
| Aircraft | B738/M-SDE2E3FGHIRWXY/LB1 |
Departure
| Time | 2026-04-28 02:54 |
|---|---|
| Airport | Cancún International Airport (MMUN) |
Arrival
| Time | N/A |
|---|---|
| Airport | Fort Lauderdale Hollywood International Airport (KFLL) |
| Time | Latitude | Longitude | Altitude | Speed | Heading |
|---|---|---|---|---|---|
| 2026-04-28 02:33 | 21.03697 | -86.87144 | 31 ft | 0 kts | 33° |
| 2026-04-28 02:45 | 21.03696 | -86.87144 | 31 ft | 0 kts | 33° |
| 2026-04-28 02:45 | 21.03689 | -86.87149 | 31 ft | 2 kts | 33° |
| 2026-04-28 02:45 | 21.03676 | -86.87158 | 31 ft | 2 kts | 33° |
| 2026-04-28 02:45 | 21.03664 | -86.87167 | 30 ft | 2 kts | 34° |
| 2026-04-28 02:46 | 21.03650 | -86.87174 | 30 ft | 2 kts | 13° |
| 2026-04-28 02:46 | 21.03636 | -86.87176 | 30 ft | 2 kts | 358° |
| 2026-04-28 02:46 | 21.03621 | -86.87174 | 30 ft | 2 kts | 340° |
| 2026-04-28 02:46 | 21.03607 | -86.87167 | 30 ft | 2 kts | 323° |
| 2026-04-28 02:47 | 21.03597 | -86.87156 | 30 ft | 2 kts | 307° |
| 2026-04-28 02:47 | 21.03593 | -86.87150 | 31 ft | 0 kts | 300° |
| 2026-04-28 02:48 | 21.03593 | -86.87151 | 30 ft | 1 kts | 300° |
| 2026-04-28 02:48 | 21.03628 | -86.87212 | 29 ft | 15 kts | 302° |
| 2026-04-28 02:49 | 21.03657 | -86.87337 | 27 ft | 20 kts | 255° |
| 2026-04-28 02:49 | 21.03726 | -86.87492 | 24 ft | 29 kts | 307° |
| 2026-04-28 02:49 | 21.03859 | -86.87712 | 24 ft | 40 kts | 306° |
| 2026-04-28 02:49 | 21.04014 | -86.87963 | 24 ft | 40 kts | 302° |
| 2026-04-28 02:50 | 21.04166 | -86.88206 | 28 ft | 37 kts | 305° |
| 2026-04-28 02:50 | 21.04306 | -86.88429 | 32 ft | 28 kts | 302° |
| 2026-04-28 02:50 | 21.04414 | -86.88602 | 35 ft | 27 kts | 306° |
| 2026-04-28 02:50 | 21.04523 | -86.88773 | 35 ft | 28 kts | 303° |
| 2026-04-28 02:51 | 21.04630 | -86.88944 | 36 ft | 20 kts | 305° |
| 2026-04-28 02:51 | 21.04632 | -86.89010 | 36 ft | 8 kts | 226° |
| 2026-04-28 02:51 | 21.04614 | -86.89025 | 36 ft | 0 kts | 217° |
| 2026-04-28 02:52 | 21.04597 | -86.89039 | 35 ft | 13 kts | 216° |
| 2026-04-28 02:52 | 21.04505 | -86.89057 | 33 ft | 13 kts | 122° |
| 2026-04-28 02:52 | 21.04496 | -86.89043 | 33 ft | 0 kts | 121° |
| 2026-04-28 02:52 | 21.04414 | -86.88911 | 33 ft | 51 kts | 123° |
| 2026-04-28 02:53 | 21.04109 | -86.88424 | 29 ft | 105 kts | 123° |
| 2026-04-28 02:53 | 21.03608 | -86.87622 | 25 ft | 150 kts | 123° |
| 2026-04-28 02:53 | 21.02966 | -86.86584 | 84 ft | 179 kts | 123° |
| 2026-04-28 02:53 | 21.02280 | -86.85426 | 465 ft | 187 kts | 121° |
| 2026-04-28 02:54 | 21.01627 | -86.84303 | 1043 ft | 182 kts | 121° |
| 2026-04-28 02:54 | 21.00920 | -86.83118 | 1295 ft | 194 kts | 121° |
| 2026-04-28 02:54 | 21.00176 | -86.81883 | 1676 ft | 197 kts | 121° |
| 2026-04-28 02:54 | 20.99443 | -86.80661 | 2103 ft | 198 kts | 120° |
| 2026-04-28 02:55 | 20.98687 | -86.79405 | 2465 ft | 204 kts | 123° |
| 2026-04-28 02:55 | 20.97584 | -86.78339 | 2581 ft | 227 kts | 153° |
| 2026-04-28 02:55 | 20.95949 | -86.78031 | 2788 ft | 248 kts | 183° |
| 2026-04-28 02:55 | 20.94257 | -86.78585 | 2974 ft | 267 kts | 208° |
| 2026-04-28 02:56 | 20.92856 | -86.79993 | 3373 ft | 283 kts | 240° |
| 2026-04-28 02:56 | 20.92358 | -86.81982 | 4042 ft | 283 kts | 273° |
| 2026-04-28 02:56 | 20.92914 | -86.83965 | 4689 ft | 280 kts | 307° |
| 2026-04-28 02:56 | 20.94353 | -86.85308 | 5353 ft | 275 kts | 339° |
| 2026-04-28 02:57 | 20.96171 | -86.85748 | 6023 ft | 271 kts | 358° |
| 2026-04-28 02:57 | 20.98077 | -86.85807 | 6688 ft | 271 kts | 2° |
| 2026-04-28 02:57 | 20.99945 | -86.85797 | 7347 ft | 271 kts | 5° |
| 2026-04-28 02:57 | 21.01790 | -86.85448 | 8017 ft | 269 kts | 19° |
| 2026-04-28 02:58 | 21.03474 | -86.84561 | 8654 ft | 270 kts | 37° |
| 2026-04-28 02:58 | 21.04814 | -86.83157 | 9276 ft | 271 kts | 48° |
| 2026-04-28 02:58 | 21.06021 | -86.81617 | 9853 ft | 274 kts | 49° |
| 2026-04-28 02:58 | 21.07256 | -86.80045 | 10393 ft | 279 kts | 48° |
| 2026-04-28 02:59 | 21.08557 | -86.78417 | 10648 ft | 295 kts | 47° |
| 2026-04-28 02:59 | 21.09906 | -86.76746 | 11135 ft | 300 kts | 47° |
| 2026-04-28 02:59 | 21.11280 | -86.75048 | 11709 ft | 304 kts | 47° |
| 2026-04-28 02:59 | 21.12666 | -86.73334 | 12320 ft | 306 kts | 47° |
| 2026-04-28 03:00 | 21.14074 | -86.71590 | 12927 ft | 309 kts | 47° |
| 2026-04-28 03:00 | 21.15489 | -86.69838 | 13477 ft | 313 kts | 47° |
| 2026-04-28 03:00 | 21.16917 | -86.68070 | 14041 ft | 316 kts | 47° |
| 2026-04-28 03:00 | 21.18364 | -86.66277 | 14624 ft | 319 kts | 47° |
| 2026-04-28 03:01 | 21.19814 | -86.64479 | 15184 ft | 323 kts | 47° |
| 2026-04-28 03:01 | 21.21282 | -86.62659 | 15735 ft | 326 kts | 47° |
| 2026-04-28 03:01 | 21.22769 | -86.60814 | 16282 ft | 329 kts | 47° |
| 2026-04-28 03:01 | 21.24271 | -86.58951 | 16807 ft | 333 kts | 47° |
| 2026-04-28 03:02 | 21.25806 | -86.57045 | 17356 ft | 335 kts | 46° |
| 2026-04-28 03:02 | 21.27322 | -86.55161 | 17874 ft | 338 kts | 46° |
| 2026-04-28 03:02 | 21.28885 | -86.53220 | 18347 ft | 343 kts | 46° |
| 2026-04-28 03:02 | 21.30451 | -86.51274 | 18865 ft | 346 kts | 46° |
| 2026-04-28 03:03 | 21.32020 | -86.49325 | 19348 ft | 350 kts | 46° |
| 2026-04-28 03:03 | 21.33618 | -86.47340 | 19849 ft | 353 kts | 46° |
| 2026-04-28 03:03 | 21.35221 | -86.45348 | 20309 ft | 357 kts | 46° |
| 2026-04-28 03:03 | 21.36855 | -86.43316 | 20823 ft | 359 kts | 45° |
| 2026-04-28 03:04 | 21.38506 | -86.41262 | 21261 ft | 363 kts | 45° |
| 2026-04-28 03:04 | 21.40147 | -86.39219 | 21733 ft | 366 kts | 45° |
| 2026-04-28 03:04 | 21.41823 | -86.37131 | 22142 ft | 370 kts | 45° |
| 2026-04-28 03:04 | 21.43504 | -86.35037 | 22594 ft | 372 kts | 45° |
| 2026-04-28 03:05 | 21.45208 | -86.32911 | 23019 ft | 375 kts | 45° |
| 2026-04-28 03:05 | 21.46889 | -86.30814 | 23451 ft | 377 kts | 45° |
| 2026-04-28 03:05 | 21.48614 | -86.28661 | 23877 ft | 379 kts | 45° |
| 2026-04-28 03:05 | 21.50340 | -86.26505 | 24268 ft | 381 kts | 45° |
| 2026-04-28 03:06 | 21.52059 | -86.24358 | 24673 ft | 383 kts | 45° |
| 2026-04-28 03:06 | 21.53801 | -86.22182 | 25056 ft | 386 kts | 45° |
| 2026-04-28 03:06 | 21.55575 | -86.19964 | 25459 ft | 387 kts | 44° |
| 2026-04-28 03:06 | 21.57337 | -86.17760 | 25831 ft | 389 kts | 44° |
| 2026-04-28 03:07 | 21.59081 | -86.15576 | 26209 ft | 391 kts | 44° |
| 2026-04-28 03:07 | 21.60883 | -86.13322 | 26533 ft | 394 kts | 44° |
| 2026-04-28 03:07 | 21.62659 | -86.11100 | 26888 ft | 396 kts | 44° |
| 2026-04-28 03:07 | 21.64463 | -86.08842 | 27206 ft | 398 kts | 44° |
| 2026-04-28 03:08 | 21.66268 | -86.06579 | 27570 ft | 399 kts | 44° |
| 2026-04-28 03:08 | 21.68086 | -86.04300 | 27872 ft | 401 kts | 44° |
| 2026-04-28 03:08 | 21.69897 | -86.02029 | 28185 ft | 403 kts | 44° |
| 2026-04-28 03:08 | 21.71723 | -85.99738 | 28503 ft | 405 kts | 44° |
| 2026-04-28 03:09 | 21.73547 | -85.97450 | 28801 ft | 407 kts | 44° |
| 2026-04-28 03:09 | 21.75395 | -85.95129 | 29102 ft | 408 kts | 44° |
| 2026-04-28 03:09 | 21.77250 | -85.92802 | 29334 ft | 412 kts | 44° |
| 2026-04-28 03:09 | 21.79124 | -85.90449 | 29590 ft | 415 kts | 44° |
| 2026-04-28 03:10 | 21.81008 | -85.88081 | 29861 ft | 417 kts | 44° |
| 2026-04-28 03:10 | 21.82894 | -85.85710 | 30102 ft | 420 kts | 44° |
| 2026-04-28 03:10 | 21.84802 | -85.83309 | 30321 ft | 423 kts | 44° |
| 2026-04-28 03:10 | 21.86723 | -85.80891 | 30617 ft | 424 kts | 45° |
| 2026-04-28 03:11 | 21.88657 | -85.78454 | 30856 ft | 427 kts | 45° |
| 2026-04-28 03:11 | 21.90586 | -85.76023 | 31093 ft | 429 kts | 45° |
| 2026-04-28 03:11 | 21.92507 | -85.73601 | 31302 ft | 432 kts | 45° |
| 2026-04-28 03:11 | 21.94472 | -85.71124 | 31534 ft | 434 kts | 45° |
| 2026-04-28 03:12 | 21.96440 | -85.68640 | 31741 ft | 437 kts | 45° |
| 2026-04-28 03:12 | 21.98420 | -85.66140 | 31975 ft | 439 kts | 46° |
| 2026-04-28 03:12 | 22.00396 | -85.63643 | 32199 ft | 441 kts | 46° |
| 2026-04-28 03:12 | 22.02393 | -85.61118 | 32396 ft | 443 kts | 46° |
| 2026-04-28 03:13 | 22.04393 | -85.58590 | 32600 ft | 445 kts | 46° |
| 2026-04-28 03:13 | 22.06407 | -85.56042 | 32813 ft | 447 kts | 46° |
| 2026-04-28 03:13 | 22.08431 | -85.53479 | 33013 ft | 450 kts | 46° |
| 2026-04-28 03:13 | 22.10441 | -85.50934 | 33258 ft | 451 kts | 46° |
| 2026-04-28 03:14 | 22.12485 | -85.48344 | 33440 ft | 453 kts | 46° |
| 2026-04-28 03:14 | 22.14532 | -85.45750 | 33693 ft | 454 kts | 46° |
| 2026-04-28 03:14 | 22.16609 | -85.43115 | 33882 ft | 456 kts | 46° |
| 2026-04-28 03:14 | 22.18679 | -85.40486 | 34109 ft | 458 kts | 46° |
| 2026-04-28 03:15 | 22.20762 | -85.37840 | 34363 ft | 458 kts | 46° |
| 2026-04-28 03:15 | 22.22809 | -85.35238 | 34762 ft | 455 kts | 46° |
| 2026-04-28 03:15 | 22.24864 | -85.32624 | 35061 ft | 454 kts | 46° |
| 2026-04-28 03:15 | 22.26913 | -85.30017 | 35281 ft | 454 kts | 46° |
| 2026-04-28 03:16 | 22.28957 | -85.27415 | 35509 ft | 454 kts | 46° |
| 2026-04-28 03:16 | 22.31017 | -85.24789 | 35705 ft | 455 kts | 46° |
| 2026-04-28 03:16 | 22.33051 | -85.22198 | 35954 ft | 454 kts | 46° |
| 2026-04-28 03:16 | 22.35105 | -85.19582 | 36141 ft | 455 kts | 46° |
| 2026-04-28 03:17 | 22.37153 | -85.16975 | 36354 ft | 454 kts | 46° |
| 2026-04-28 03:17 | 22.41247 | -85.11755 | 36736 ft | 455 kts | 46° |
| 2026-04-28 03:17 | 22.43292 | -85.09147 | 36907 ft | 455 kts | 46° |
| 2026-04-28 03:18 | 22.45345 | -85.06525 | 37036 ft | 456 kts | 46° |
| 2026-04-28 03:18 | 22.47397 | -85.03905 | 37037 ft | 457 kts | 46° |
| 2026-04-28 03:18 | 22.51504 | -84.98654 | 37040 ft | 455 kts | 46° |
| 2026-04-28 03:19 | 22.55569 | -84.93448 | 37037 ft | 455 kts | 46° |
| 2026-04-28 03:19 | 22.59665 | -84.88200 | 37040 ft | 456 kts | 46° |
| 2026-04-28 03:20 | 22.63753 | -84.82958 | 37042 ft | 455 kts | 46° |
| 2026-04-28 03:20 | 22.67832 | -84.77722 | 37041 ft | 456 kts | 46° |
| 2026-04-28 03:21 | 22.71919 | -84.72469 | 37043 ft | 456 kts | 46° |
| 2026-04-28 03:21 | 22.76013 | -84.67203 | 37045 ft | 456 kts | 46° |
| 2026-04-28 03:22 | 22.80091 | -84.61951 | 37043 ft | 456 kts | 46° |
| 2026-04-28 03:22 | 22.84190 | -84.56667 | 37044 ft | 456 kts | 46° |
| 2026-04-28 03:23 | 22.88264 | -84.51410 | 37048 ft | 456 kts | 46° |
| 2026-04-28 03:23 | 22.92343 | -84.46140 | 37048 ft | 456 kts | 46° |
| 2026-04-28 03:24 | 22.96423 | -84.40865 | 37049 ft | 457 kts | 46° |
| 2026-04-28 03:24 | 23.00526 | -84.35554 | 37049 ft | 457 kts | 46° |
| 2026-04-28 03:25 | 23.04610 | -84.30263 | 37049 ft | 457 kts | 46° |
| 2026-04-28 03:25 | 23.08708 | -84.24948 | 37049 ft | 458 kts | 46° |
| 2026-04-28 03:26 | 23.12800 | -84.19635 | 37049 ft | 458 kts | 46° |